sensor_id;sensor_type;location;lat;lon;timestamp;temperature;humidity
23532;DHT22;11943;52.270;20.978;2023-01-16T00:01:40;5.30;99.90
23532;DHT22;11943;52.270;20.978;2023-01-16T00:04:06;5.30;99.90
23532;DHT22;11943;52.270;20.978;2023-01-16T00:06:32;5.30;99.90
23532;DHT22;11943;52.270;20.978;2023-01-16T00:08:57;5.30;99.90
23532;DHT22;11943;52.270;20.978;2023-01-16T00:11:24;5.30;99.90
23532;DHT22;11943;52.270;20.978;2023-01-16T00:13:49;5.30;99.90
23532;DHT22;11943;52.270;20.978;2023-01-16T00:16:15;5.30;99.90
23532;DHT22;11943;52.270;20.978;2023-01-16T00:18:44;5.30;99.90
23532;DHT22;11943;52.270;20.978;2023-01-16T00:21:09;5.20;99.90
23532;DHT22;11943;52.270;20.978;2023-01-16T00:23:35;5.20;99.90
23532;DHT22;11943;52.270;20.978;2023-01-16T00:26:04;5.20;99.90
23532;DHT22;11943;52.270;20.978;2023-01-16T00:28:29;5.10;99.90
23532;DHT22;11943;52.270;20.978;2023-01-16T00:30:55;5.10;99.90
23532;DHT22;11943;52.270;20.978;2023-01-16T00:33:21;5.10;99.90
23532;DHT22;11943;52.270;20.978;2023-01-16T00:35:46;5.00;99.90
23532;DHT22;11943;52.270;20.978;2023-01-16T00:38:12;5.00;99.90
23532;DHT22;11943;52.270;20.978;2023-01-16T00:40:38;5.00;99.90
23532;DHT22;11943;52.270;20.978;2023-01-16T00:43:04;5.00;99.90
23532;DHT22;11943;52.270;20.978;2023-01-16T00:45:29;4.90;99.90
23532;DHT22;11943;52.270;20.978;2023-01-16T00:47:55;4.90;99.90
23532;DHT22;11943;52.270;20.978;2023-01-16T00:50:20;4.80;99.90
23532;DHT22;11943;52.270;20.978;2023-01-16T00:52:46;4.80;99.90
23532;DHT22;11943;52.270;20.978;2023-01-16T00:55:11;4.90;99.90
23532;DHT22;11943;52.270;20.978;2023-01-16T00:57:37;4.80;99.90
23532;DHT22;11943;52.270;20.978;2023-01-16T01:00:02;4.80;99.90
23532;DHT22;11943;52.270;20.978;2023-01-16T01:02:28;4.70;99.90
23532;DHT22;11943;52.270;20.978;2023-01-16T01:04:54;4.80;99.90
23532;DHT22;11943;52.270;20.978;2023-01-16T01:07:19;4.70;99.90
23532;DHT22;11943;52.270;20.978;2023-01-16T01:09:45;4.70;99.90
23532;DHT22;11943;52.270;20.978;2023-01-16T01:12:10;4.70;99.90
23532;DHT22;11943;52.270;20.978;2023-01-16T01:14:36;4.70;99.90
23532;DHT22;11943;52.270;20.978;2023-01-16T01:17:01;4.60;99.90
23532;DHT22;11943;52.270;20.978;2023-01-16T01:19:27;4.60;99.90
23532;DHT22;11943;52.270;20.978;2023-01-16T01:21:52;4.60;99.90
23532;DHT22;11943;52.270;20.978;2023-01-16T01:24:18;4.50;99.90
23532;DHT22;11943;52.270;20.978;2023-01-16T01:26:44;4.50;99.90
23532;DHT22;11943;52.270;20.978;2023-01-16T01:29:09;4.50;99.90
23532;DHT22;11943;52.270;20.978;2023-01-16T01:31:35;4.60;99.90
23532;DHT22;11943;52.270;20.978;2023-01-16T01:34:01;4.50;99.90
23532;DHT22;11943;52.270;20.978;2023-01-16T01:36:26;4.50;99.90
23532;DHT22;11943;52.270;20.978;2023-01-16T01:38:52;4.50;99.90
23532;DHT22;11943;52.270;20.978;2023-01-16T01:41:18;4.50;99.90
23532;DHT22;11943;52.270;20.978;2023-01-16T01:46:18;4.50;99.90
23532;DHT22;11943;52.270;20.978;2023-01-16T01:48:45;4.50;99.90
23532;DHT22;11943;52.270;20.978;2023-01-16T01:51:19;4.50;99.90
23532;DHT22;11943;52.270;20.978;2023-01-16T01:53:48;4.50;99.90
23532;DHT22;11943;52.270;20.978;2023-01-16T01:56:37;4.40;99.90
23532;DHT22;11943;52.270;20.978;2023-01-16T01:59:02;4.40;99.90
23532;DHT22;11943;52.270;20.978;2023-01-16T02:01:30;4.40;99.90
23532;DHT22;11943;52.270;20.978;2023-01-16T02:03:57;4.40;99.90
23532;DHT22;11943;52.270;20.978;2023-01-16T02:06:25;4.30;99.90
23532;DHT22;11943;52.270;20.978;2023-01-16T02:08:53;4.30;99.90
23532;DHT22;11943;52.270;20.978;2023-01-16T02:11:36;4.30;99.90
23532;DHT22;11943;52.270;20.978;2023-01-16T02:14:11;4.30;99.90
23532;DHT22;11943;52.270;20.978;2023-01-16T02:16:37;4.20;99.90
23532;DHT22;11943;52.270;20.978;2023-01-16T02:19:41;4.20;99.90
23532;DHT22;11943;52.270;20.978;2023-01-16T02:35:17;4.10;99.90
23532;DHT22;11943;52.270;20.978;2023-01-16T02:47:45;4.00;99.90
23532;DHT22;11943;52.270;20.978;2023-01-16T02:52:48;4.00;99.90
23532;DHT22;11943;52.270;20.978;2023-01-16T02:55:36;3.90;99.90
23532;DHT22;11943;52.270;20.978;2023-01-16T02:58:04;3.80;99.90
23532;DHT22;11943;52.270;20.978;2023-01-16T03:00:31;3.90;99.90
23532;DHT22;11943;52.270;20.978;2023-01-16T03:02:57;3.90;99.90
23532;DHT22;11943;52.270;20.978;2023-01-16T03:05:22;3.80;99.90
23532;DHT22;11943;52.270;20.978;2023-01-16T03:15:38;3.70;99.90
23532;DHT22;11943;52.270;20.978;2023-01-16T03:18:10;3.80;99.90
23532;DHT22;11943;52.270;20.978;2023-01-16T03:23:34;3.70;99.90
23532;DHT22;11943;52.270;20.978;2023-01-16T03:26:11;3.70;99.90
23532;DHT22;11943;52.270;20.978;2023-01-16T03:31:41;3.60;99.90
23532;DHT22;11943;52.270;20.978;2023-01-16T03:36:42;3.60;99.90
23532;DHT22;11943;52.270;20.978;2023-01-16T03:39:10;3.50;99.90
23532;DHT22;11943;52.270;20.978;2023-01-16T03:41:38;3.50;99.90
23532;DHT22;11943;52.270;20.978;2023-01-16T03:44:05;3.50;99.90
23532;DHT22;11943;52.270;20.978;2023-01-16T03:46:35;3.50;99.90
23532;DHT22;11943;52.270;20.978;2023-01-16T03:49:04;3.60;99.90
23532;DHT22;11943;52.270;20.978;2023-01-16T03:51:30;3.60;99.90
23532;DHT22;11943;52.270;20.978;2023-01-16T03:54:03;3.50;99.90
23532;DHT22;11943;52.270;20.978;2023-01-16T03:56:37;3.50;99.90
23532;DHT22;11943;52.270;20.978;2023-01-16T03:59:05;3.50;99.90
23532;DHT22;11943;52.270;20.978;2023-01-16T04:01:34;3.50;99.90
23532;DHT22;11943;52.270;20.978;2023-01-16T04:04:03;3.50;99.90
23532;DHT22;11943;52.270;20.978;2023-01-16T04:06:36;3.40;99.90
23532;DHT22;11943;52.270;20.978;2023-01-16T04:09:03;3.50;99.90
23532;DHT22;11943;52.270;20.978;2023-01-16T04:11:31;3.50;99.90
23532;DHT22;11943;52.270;20.978;2023-01-16T04:13:58;3.40;99.90
23532;DHT22;11943;52.270;20.978;2023-01-16T04:16:24;3.40;99.90
23532;DHT22;11943;52.270;20.978;2023-01-16T04:18:50;3.40;99.90
23532;DHT22;11943;52.270;20.978;2023-01-16T04:21:18;3.30;99.90
23532;DHT22;11943;52.270;20.978;2023-01-16T04:23:44;3.30;99.90
23532;DHT22;11943;52.270;20.978;2023-01-16T04:26:09;3.40;99.90
23532;DHT22;11943;52.270;20.978;2023-01-16T04:28:35;3.30;99.90
23532;DHT22;11943;52.270;20.978;2023-01-16T04:31:00;3.30;99.90
23532;DHT22;11943;52.270;20.978;2023-01-16T04:33:26;3.30;99.90
23532;DHT22;11943;52.270;20.978;2023-01-16T04:35:51;3.30;99.90
23532;DHT22;11943;52.270;20.978;2023-01-16T04:38:17;3.20;99.90
23532;DHT22;11943;52.270;20.978;2023-01-16T04:40:42;3.20;99.90
23532;DHT22;11943;52.270;20.978;2023-01-16T04:43:08;3.20;99.90
23532;DHT22;11943;52.270;20.978;2023-01-16T04:45:33;3.20;99.90
23532;DHT22;11943;52.270;20.978;2023-01-16T04:47:59;3.20;99.90
23532;DHT22;11943;52.270;20.978;2023-01-16T04:50:24;3.20;99.90
23532;DHT22;11943;52.270;20.978;2023-01-16T04:52:50;3.20;99.90
23532;DHT22;11943;52.270;20.978;2023-01-16T04:55:15;3.20;99.90
23532;DHT22;11943;52.270;20.978;2023-01-16T04:57:41;3.20;99.90
23532;DHT22;11943;52.270;20.978;2023-01-16T05:00:07;3.20;99.90
23532;DHT22;11943;52.270;20.978;2023-01-16T05:02:34;3.20;99.90
23532;DHT22;11943;52.270;20.978;2023-01-16T05:04:59;3.20;99.90
23532;DHT22;11943;52.270;20.978;2023-01-16T05:07:25;3.20;99.90
23532;DHT22;11943;52.270;20.978;2023-01-16T05:09:52;3.10;99.90
23532;DHT22;11943;52.270;20.978;2023-01-16T05:12:18;3.10;99.90
23532;DHT22;11943;52.270;20.978;2023-01-16T05:14:43;3.20;99.90
23532;DHT22;11943;52.270;20.978;2023-01-16T05:17:09;3.20;99.90
23532;DHT22;11943;52.270;20.978;2023-01-16T05:19:34;3.20;99.90
23532;DHT22;11943;52.270;20.978;2023-01-16T05:22:00;3.20;99.90
23532;DHT22;11943;52.270;20.978;2023-01-16T05:24:25;3.10;99.90
23532;DHT22;11943;52.270;20.978;2023-01-16T05:26:51;3.20;99.90
23532;DHT22;11943;52.270;20.978;2023-01-16T05:29:16;3.10;99.90
23532;DHT22;11943;52.270;20.978;2023-01-16T05:31:42;3.10;99.90
23532;DHT22;11943;52.270;20.978;2023-01-16T05:34:08;3.10;99.90
23532;DHT22;11943;52.270;20.978;2023-01-16T05:36:33;3.10;99.90
23532;DHT22;11943;52.270;20.978;2023-01-16T05:38:59;3.10;99.90
23532;DHT22;11943;52.270;20.978;2023-01-16T05:41:24;3.10;99.90
23532;DHT22;11943;52.270;20.978;2023-01-16T05:43:50;3.10;99.90
23532;DHT22;11943;52.270;20.978;2023-01-16T05:46:15;3.10;99.90
23532;DHT22;11943;52.270;20.978;2023-01-16T05:48:41;3.10;99.90
23532;DHT22;11943;52.270;20.978;2023-01-16T05:51:09;3.10;99.90
23532;DHT22;11943;52.270;20.978;2023-01-16T05:53:36;3.10;99.90
23532;DHT22;11943;52.270;20.978;2023-01-16T05:56:06;3.20;99.90
23532;DHT22;11943;52.270;20.978;2023-01-16T05:58:32;3.10;99.90
23532;DHT22;11943;52.270;20.978;2023-01-16T06:00:57;3.20;99.90
23532;DHT22;11943;52.270;20.978;2023-01-16T06:03:23;3.20;99.90
23532;DHT22;11943;52.270;20.978;2023-01-16T06:05:48;3.20;99.90
23532;DHT22;11943;52.270;20.978;2023-01-16T06:08:14;3.10;99.90
23532;DHT22;11943;52.270;20.978;2023-01-16T06:10:39;3.10;99.90
23532;DHT22;11943;52.270;20.978;2023-01-16T06:13:05;3.00;99.90
23532;DHT22;11943;52.270;20.978;2023-01-16T06:15:30;3.00;99.90
23532;DHT22;11943;52.270;20.978;2023-01-16T06:17:56;3.10;99.90
23532;DHT22;11943;52.270;20.978;2023-01-16T06:20:22;3.00;99.90
23532;DHT22;11943;52.270;20.978;2023-01-16T06:22:47;3.00;99.90
23532;DHT22;11943;52.270;20.978;2023-01-16T06:25:13;3.00;99.90
23532;DHT22;11943;52.270;20.978;2023-01-16T06:27:39;3.00;99.90
23532;DHT22;11943;52.270;20.978;2023-01-16T06:30:05;3.00;99.90
23532;DHT22;11943;52.270;20.978;2023-01-16T06:32:30;3.00;99.90
23532;DHT22;11943;52.270;20.978;2023-01-16T06:34:56;3.10;99.90
23532;DHT22;11943;52.270;20.978;2023-01-16T06:37:21;3.00;99.90
23532;DHT22;11943;52.270;20.978;2023-01-16T06:39:47;3.00;99.90
23532;DHT22;11943;52.270;20.978;2023-01-16T06:42:12;3.10;99.90
23532;DHT22;11943;52.270;20.978;2023-01-16T06:44:38;3.10;99.90
23532;DHT22;11943;52.270;20.978;2023-01-16T06:47:03;3.10;99.90
23532;DHT22;11943;52.270;20.978;2023-01-16T06:49:29;3.10;99.90
23532;DHT22;11943;52.270;20.978;2023-01-16T06:51:55;3.50;99.90
23532;DHT22;11943;52.270;20.978;2023-01-16T06:54:20;3.10;99.90
23532;DHT22;11943;52.270;20.978;2023-01-16T06:56:46;3.10;99.90
23532;DHT22;11943;52.270;20.978;2023-01-16T06:59:11;3.10;99.90
23532;DHT22;11943;52.270;20.978;2023-01-16T07:01:37;3.10;99.90
23532;DHT22;11943;52.270;20.978;2023-01-16T07:04:02;3.20;99.90
23532;DHT22;11943;52.270;20.978;2023-01-16T07:06:28;3.10;99.90
23532;DHT22;11943;52.270;20.978;2023-01-16T07:08:55;3.10;99.90
23532;DHT22;11943;52.270;20.978;2023-01-16T07:11:20;3.20;99.90
23532;DHT22;11943;52.270;20.978;2023-01-16T07:13:46;3.20;99.90
23532;DHT22;11943;52.270;20.978;2023-01-16T07:16:12;3.20;99.90
23532;DHT22;11943;52.270;20.978;2023-01-16T07:18:56;3.20;99.90
23532;DHT22;11943;52.270;20.978;2023-01-16T07:21:41;3.30;99.90
23532;DHT22;11943;52.270;20.978;2023-01-16T07:24:26;3.30;99.90
23532;DHT22;11943;52.270;20.978;2023-01-16T07:26:58;3.40;99.90
23532;DHT22;11943;52.270;20.978;2023-01-16T07:29:25;3.40;99.90
23532;DHT22;11943;52.270;20.978;2023-01-16T07:31:51;3.40;99.90
23532;DHT22;11943;52.270;20.978;2023-01-16T07:34:17;3.40;99.90
23532;DHT22;11943;52.270;20.978;2023-01-16T07:36:42;3.40;99.90
23532;DHT22;11943;52.270;20.978;2023-01-16T07:39:08;3.50;99.90
23532;DHT22;11943;52.270;20.978;2023-01-16T07:41:33;3.40;99.90
23532;DHT22;11943;52.270;20.978;2023-01-16T07:43:59;3.50;99.90
23532;DHT22;11943;52.270;20.978;2023-01-16T07:46:24;3.50;99.90
23532;DHT22;11943;52.270;20.978;2023-01-16T07:48:50;3.50;99.90
23532;DHT22;11943;52.270;20.978;2023-01-16T07:51:16;3.60;99.90
23532;DHT22;11943;52.270;20.978;2023-01-16T07:53:42;3.60;99.90
23532;DHT22;11943;52.270;20.978;2023-01-16T07:56:07;3.70;99.90
23532;DHT22;11943;52.270;20.978;2023-01-16T07:58:33;3.70;99.90
23532;DHT22;11943;52.270;20.978;2023-01-16T08:00:58;3.70;99.90
23532;DHT22;11943;52.270;20.978;2023-01-16T08:03:24;3.70;99.90
23532;DHT22;11943;52.270;20.978;2023-01-16T08:05:54;3.70;99.90
23532;DHT22;11943;52.270;20.978;2023-01-16T08:08:20;3.80;99.90
23532;DHT22;11943;52.270;20.978;2023-01-16T08:10:46;3.90;99.90
23532;DHT22;11943;52.270;20.978;2023-01-16T08:13:11;3.90;99.90
23532;DHT22;11943;52.270;20.978;2023-01-16T08:15:37;4.00;99.90
23532;DHT22;11943;52.270;20.978;2023-01-16T08:18:02;3.90;99.90
23532;DHT22;11943;52.270;20.978;2023-01-16T08:20:28;3.90;99.90
23532;DHT22;11943;52.270;20.978;2023-01-16T08:22:53;3.90;99.90
23532;DHT22;11943;52.270;20.978;2023-01-16T08:25:22;3.90;99.90
23532;DHT22;11943;52.270;20.978;2023-01-16T08:27:47;3.80;99.90
23532;DHT22;11943;52.270;20.978;2023-01-16T08:30:13;3.90;99.90
23532;DHT22;11943;52.270;20.978;2023-01-16T08:32:39;3.80;99.90
23532;DHT22;11943;52.270;20.978;2023-01-16T08:35:05;3.80;99.90
23532;DHT22;11943;52.270;20.978;2023-01-16T08:37:30;3.80;99.90
23532;DHT22;11943;52.270;20.978;2023-01-16T08:39:56;3.80;99.90
23532;DHT22;11943;52.270;20.978;2023-01-16T08:42:22;3.80;99.90
23532;DHT22;11943;52.270;20.978;2023-01-16T08:45:10;3.90;99.90
23532;DHT22;11943;52.270;20.978;2023-01-16T08:47:54;4.00;99.90
23532;DHT22;11943;52.270;20.978;2023-01-16T08:50:38;4.00;99.90
23532;DHT22;11943;52.270;20.978;2023-01-16T08:53:22;4.10;99.90
23532;DHT22;11943;52.270;20.978;2023-01-16T08:55:48;4.20;99.90
23532;DHT22;11943;52.270;20.978;2023-01-16T08:58:14;4.30;99.90
23532;DHT22;11943;52.270;20.978;2023-01-16T09:00:40;4.20;99.90
23532;DHT22;11943;52.270;20.978;2023-01-16T09:03:05;4.20;99.90
23532;DHT22;11943;52.270;20.978;2023-01-16T09:05:31;4.30;99.90
23532;DHT22;11943;52.270;20.978;2023-01-16T09:07:56;4.40;99.90
23532;DHT22;11943;52.270;20.978;2023-01-16T09:10:22;4.50;99.90
23532;DHT22;11943;52.270;20.978;2023-01-16T09:12:47;4.60;99.90
23532;DHT22;11943;52.270;20.978;2023-01-16T09:15:31;4.70;99.90
23532;DHT22;11943;52.270;20.978;2023-01-16T09:17:57;4.70;99.90
23532;DHT22;11943;52.270;20.978;2023-01-16T09:20:22;4.80;99.90
23532;DHT22;11943;52.270;20.978;2023-01-16T09:22:48;4.70;99.90
23532;DHT22;11943;52.270;20.978;2023-01-16T09:25:14;4.90;99.90
23532;DHT22;11943;52.270;20.978;2023-01-16T09:27:39;4.80;99.90
23532;DHT22;11943;52.270;20.978;2023-01-16T09:30:10;4.70;99.90
23532;DHT22;11943;52.270;20.978;2023-01-16T09:32:41;4.80;99.90
23532;DHT22;11943;52.270;20.978;2023-01-16T09:35:10;4.80;99.90
23532;DHT22;11943;52.270;20.978;2023-01-16T09:37:46;4.80;99.90
23532;DHT22;11943;52.270;20.978;2023-01-16T09:40:13;4.90;99.90
23532;DHT22;11943;52.270;20.978;2023-01-16T09:45:25;5.00;99.90
23532;DHT22;11943;52.270;20.978;2023-01-16T09:48:00;4.90;99.90
23532;DHT22;11943;52.270;20.978;2023-01-16T09:52:52;5.00;99.90
23532;DHT22;11943;52.270;20.978;2023-01-16T09:58:20;5.10;99.90
23532;DHT22;11943;52.270;20.978;2023-01-16T10:01:02;5.20;99.90
23532;DHT22;11943;52.270;20.978;2023-01-16T10:03:28;5.40;99.90
23532;DHT22;11943;52.270;20.978;2023-01-16T10:05:56;5.40;99.90
23532;DHT22;11943;52.270;20.978;2023-01-16T10:08:35;5.40;99.90
23532;DHT22;11943;52.270;20.978;2023-01-16T10:13:58;5.60;99.90
23532;DHT22;11943;52.270;20.978;2023-01-16T10:16:31;5.60;99.90
23532;DHT22;11943;52.270;20.978;2023-01-16T10:27:00;5.20;99.90
23532;DHT22;11943;52.270;20.978;2023-01-16T10:32:00;5.10;99.90
23532;DHT22;11943;52.270;20.978;2023-01-16T10:34:29;5.10;99.90
23532;DHT22;11943;52.270;20.978;2023-01-16T10:36:57;5.20;99.90
23532;DHT22;11943;52.270;20.978;2023-01-16T10:39:23;5.30;99.90
23532;DHT22;11943;52.270;20.978;2023-01-16T10:41:50;5.40;99.90
23532;DHT22;11943;52.270;20.978;2023-01-16T10:44:37;5.40;99.90
23532;DHT22;11943;52.270;20.978;2023-01-16T10:47:22;5.40;99.90
23532;DHT22;11943;52.270;20.978;2023-01-16T10:50:07;5.40;99.90
23532;DHT22;11943;52.270;20.978;2023-01-16T10:52:33;5.50;99.90
23532;DHT22;11943;52.270;20.978;2023-01-16T10:54:59;5.50;99.90
23532;DHT22;11943;52.270;20.978;2023-01-16T10:57:26;5.40;99.90
23532;DHT22;11943;52.270;20.978;2023-01-16T10:59:53;5.40;99.90
23532;DHT22;11943;52.270;20.978;2023-01-16T11:02:28;5.40;99.90
23532;DHT22;11943;52.270;20.978;2023-01-16T11:04:54;5.30;99.90
23532;DHT22;11943;52.270;20.978;2023-01-16T11:07:20;5.30;99.90
23532;DHT22;11943;52.270;20.978;2023-01-16T11:09:46;5.40;99.90
23532;DHT22;11943;52.270;20.978;2023-01-16T11:12:18;5.50;99.90
23532;DHT22;11943;52.270;20.978;2023-01-16T11:15:07;5.50;99.90
23532;DHT22;11943;52.270;20.978;2023-01-16T11:17:52;5.60;99.90
23532;DHT22;11943;52.270;20.978;2023-01-16T11:20:37;5.70;99.90
23532;DHT22;11943;52.270;20.978;2023-01-16T11:23:20;5.70;99.90
23532;DHT22;11943;52.270;20.978;2023-01-16T11:25:47;5.70;99.90
23532;DHT22;11943;52.270;20.978;2023-01-16T11:28:18;5.60;99.90
23532;DHT22;11943;52.270;20.978;2023-01-16T11:30:44;5.60;99.90
23532;DHT22;11943;52.270;20.978;2023-01-16T11:33:53;5.60;99.90
23532;DHT22;11943;52.270;20.978;2023-01-16T11:36:00;5.50;99.90
23532;DHT22;11943;52.270;20.978;2023-01-16T11:38:27;5.60;99.90
23532;DHT22;11943;52.270;20.978;2023-01-16T11:40:55;5.50;99.90
23532;DHT22;11943;52.270;20.978;2023-01-16T11:43:21;5.60;99.90
23532;DHT22;11943;52.270;20.978;2023-01-16T11:46:07;5.40;99.90
23532;DHT22;11943;52.270;20.978;2023-01-16T11:48:42;5.40;99.90
23532;DHT22;11943;52.270;20.978;2023-01-16T11:51:14;5.30;99.90
23532;DHT22;11943;52.270;20.978;2023-01-16T11:53:40;5.30;99.90
23532;DHT22;11943;52.270;20.978;2023-01-16T12:04:17;4.70;99.90
23532;DHT22;11943;52.270;20.978;2023-01-16T12:14:53;4.90;99.90
23532;DHT22;11943;52.270;20.978;2023-01-16T12:35:41;4.60;99.90
23532;DHT22;11943;52.270;20.978;2023-01-16T12:38:25;4.50;99.90
23532;DHT22;11943;52.270;20.978;2023-01-16T12:40:54;4.60;99.90
23532;DHT22;11943;52.270;20.978;2023-01-16T12:46:47;4.60;99.90
23532;DHT22;11943;52.270;20.978;2023-01-16T12:56:59;4.60;99.90
23532;DHT22;11943;52.270;20.978;2023-01-16T13:04:39;4.40;99.90
23532;DHT22;11943;52.270;20.978;2023-01-16T13:07:07;4.50;99.90
23532;DHT22;11943;52.270;20.978;2023-01-16T13:10:18;4.50;99.90
23532;DHT22;11943;52.270;20.978;2023-01-16T13:12:42;4.40;99.90
23532;DHT22;11943;52.270;20.978;2023-01-16T13:15:29;4.40;99.90
23532;DHT22;11943;52.270;20.978;2023-01-16T13:20:41;4.40;99.90
23532;DHT22;11943;52.270;20.978;2023-01-16T13:23:21;4.30;99.90
23532;DHT22;11943;52.270;20.978;2023-01-16T13:25:48;4.30;99.90
23532;DHT22;11943;52.270;20.978;2023-01-16T13:30:59;4.10;99.90
23532;DHT22;11943;52.270;20.978;2023-01-16T13:33:28;4.20;99.90
23532;DHT22;11943;52.270;20.978;2023-01-16T13:41:15;4.20;99.90
23532;DHT22;11943;52.270;20.978;2023-01-16T13:43:56;4.20;99.90
23532;DHT22;11943;52.270;20.978;2023-01-16T13:46:42;4.30;99.90
23532;DHT22;11943;52.270;20.978;2023-01-16T13:49:11;4.40;99.90
23532;DHT22;11943;52.270;20.978;2023-01-16T13:51:40;4.50;99.90
23532;DHT22;11943;52.270;20.978;2023-01-16T13:54:07;4.50;99.90
23532;DHT22;11943;52.270;20.978;2023-01-16T13:56:37;4.60;99.90
23532;DHT22;11943;52.270;20.978;2023-01-16T13:59:07;4.60;99.90
23532;DHT22;11943;52.270;20.978;2023-01-16T14:01:55;4.60;99.90
23532;DHT22;11943;52.270;20.978;2023-01-16T14:12:01;4.50;99.90
23532;DHT22;11943;52.270;20.978;2023-01-16T14:14:31;4.50;99.90
23532;DHT22;11943;52.270;20.978;2023-01-16T14:17:16;4.50;99.90
23532;DHT22;11943;52.270;20.978;2023-01-16T14:19:58;4.50;99.90
23532;DHT22;11943;52.270;20.978;2023-01-16T14:22:39;4.50;99.90
23532;DHT22;11943;52.270;20.978;2023-01-16T14:25:05;4.50;99.90
23532;DHT22;11943;52.270;20.978;2023-01-16T14:27:37;4.50;99.90
23532;DHT22;11943;52.270;20.978;2023-01-16T14:30:04;4.40;99.90
23532;DHT22;11943;52.270;20.978;2023-01-16T14:32:31;4.50;99.90
23532;DHT22;11943;52.270;20.978;2023-01-16T14:37:41;4.50;99.90
23532;DHT22;11943;52.270;20.978;2023-01-16T14:45:36;4.50;99.90
23532;DHT22;11943;52.270;20.978;2023-01-16T14:53:59;4.40;99.90
23532;DHT22;11943;52.270;20.978;2023-01-16T14:56:44;4.40;99.90
23532;DHT22;11943;52.270;20.978;2023-01-16T14:59:29;4.30;99.90
23532;DHT22;11943;52.270;20.978;2023-01-16T15:10:17;4.40;99.90
23532;DHT22;11943;52.270;20.978;2023-01-16T15:12:44;4.40;99.90
23532;DHT22;11943;52.270;20.978;2023-01-16T15:15:20;4.40;99.90
23532;DHT22;11943;52.270;20.978;2023-01-16T15:17:46;4.40;99.90
23532;DHT22;11943;52.270;20.978;2023-01-16T15:20:32;4.30;99.90
23532;DHT22;11943;52.270;20.978;2023-01-16T15:23:24;4.20;99.90
23532;DHT22;11943;52.270;20.978;2023-01-16T15:30:58;4.10;99.90
23532;DHT22;11943;52.270;20.978;2023-01-16T15:33:31;4.10;99.90
23532;DHT22;11943;52.270;20.978;2023-01-16T15:38:39;4.10;99.90
23532;DHT22;11943;52.270;20.978;2023-01-16T15:41:04;4.00;99.90
23532;DHT22;11943;52.270;20.978;2023-01-16T15:43:30;4.00;99.90
23532;DHT22;11943;52.270;20.978;2023-01-16T15:46:18;3.90;99.90
23532;DHT22;11943;52.270;20.978;2023-01-16T15:49:04;3.90;99.90
23532;DHT22;11943;52.270;20.978;2023-01-16T15:51:32;3.90;99.90
23532;DHT22;11943;52.270;20.978;2023-01-16T15:53:58;3.90;99.90
23532;DHT22;11943;52.270;20.978;2023-01-16T15:56:26;3.90;99.90
23532;DHT22;11943;52.270;20.978;2023-01-16T15:58:53;3.90;99.90
23532;DHT22;11943;52.270;20.978;2023-01-16T16:01:26;3.90;99.90
23532;DHT22;11943;52.270;20.978;2023-01-16T16:03:52;3.90;99.90
23532;DHT22;11943;52.270;20.978;2023-01-16T16:06:18;3.90;99.90
23532;DHT22;11943;52.270;20.978;2023-01-16T16:08:45;3.90;99.90
23532;DHT22;11943;52.270;20.978;2023-01-16T16:11:32;4.00;99.90
23532;DHT22;11943;52.270;20.978;2023-01-16T16:17:19;3.80;99.90
23532;DHT22;11943;52.270;20.978;2023-01-16T16:33:23;3.80;99.90
23532;DHT22;11943;52.270;20.978;2023-01-16T16:35:50;3.80;99.90
23532;DHT22;11943;52.270;20.978;2023-01-16T16:38:18;3.90;99.90
23532;DHT22;11943;52.270;20.978;2023-01-16T16:40:44;3.90;99.90
23532;DHT22;11943;52.270;20.978;2023-01-16T16:43:28;3.80;99.90
23532;DHT22;11943;52.270;20.978;2023-01-16T16:46:49;3.90;99.90
23532;DHT22;11943;52.270;20.978;2023-01-16T16:49:37;3.90;99.90
23532;DHT22;11943;52.270;20.978;2023-01-16T16:51:44;4.00;99.90
23532;DHT22;11943;52.270;20.978;2023-01-16T16:54:15;4.00;99.90
23532;DHT22;11943;52.270;20.978;2023-01-16T16:56:59;4.00;99.90
23532;DHT22;11943;52.270;20.978;2023-01-16T16:59:28;4.00;99.90
23532;DHT22;11943;52.270;20.978;2023-01-16T17:01:57;4.00;99.90
23532;DHT22;11943;52.270;20.978;2023-01-16T17:04:28;4.00;99.90
23532;DHT22;11943;52.270;20.978;2023-01-16T17:06:54;4.00;99.90
23532;DHT22;11943;52.270;20.978;2023-01-16T17:09:20;4.00;99.90
23532;DHT22;11943;52.270;20.978;2023-01-16T17:11:45;4.00;99.90
23532;DHT22;11943;52.270;20.978;2023-01-16T17:14:11;4.00;99.90
23532;DHT22;11943;52.270;20.978;2023-01-16T17:16:37;4.00;99.90
23532;DHT22;11943;52.270;20.978;2023-01-16T17:19:05;4.00;99.90
23532;DHT22;11943;52.270;20.978;2023-01-16T17:21:31;4.10;99.90
23532;DHT22;11943;52.270;20.978;2023-01-16T17:23:56;4.10;99.90
23532;DHT22;11943;52.270;20.978;2023-01-16T17:26:22;4.10;99.90
23532;DHT22;11943;52.270;20.978;2023-01-16T17:28:48;4.10;99.90
23532;DHT22;11943;52.270;20.978;2023-01-16T17:31:18;4.20;99.90
23532;DHT22;11943;52.270;20.978;2023-01-16T17:33:44;4.20;99.90
23532;DHT22;11943;52.270;20.978;2023-01-16T17:36:16;4.10;99.90
23532;DHT22;11943;52.270;20.978;2023-01-16T17:38:42;4.20;99.90
23532;DHT22;11943;52.270;20.978;2023-01-16T17:41:21;4.20;99.90
23532;DHT22;11943;52.270;20.978;2023-01-16T17:44:13;4.20;99.90
23532;DHT22;11943;52.270;20.978;2023-01-16T17:46:58;4.20;99.90
23532;DHT22;11943;52.270;20.978;2023-01-16T17:49:23;4.20;99.90
23532;DHT22;11943;52.270;20.978;2023-01-16T17:51:49;4.10;99.90
23532;DHT22;11943;52.270;20.978;2023-01-16T17:54:14;4.20;99.90
23532;DHT22;11943;52.270;20.978;2023-01-16T17:57:00;4.20;99.90
23532;DHT22;11943;52.270;20.978;2023-01-16T17:59:25;4.30;99.90
23532;DHT22;11943;52.270;20.978;2023-01-16T18:01:52;4.30;99.90
23532;DHT22;11943;52.270;20.978;2023-01-16T18:04:19;4.30;99.90
23532;DHT22;11943;52.270;20.978;2023-01-16T18:06:44;4.30;99.90
23532;DHT22;11943;52.270;20.978;2023-01-16T18:09:10;4.30;99.90
23532;DHT22;11943;52.270;20.978;2023-01-16T18:11:37;4.40;99.90
23532;DHT22;11943;52.270;20.978;2023-01-16T18:14:22;4.40;99.90
23532;DHT22;11943;52.270;20.978;2023-01-16T18:17:07;4.40;99.90
23532;DHT22;11943;52.270;20.978;2023-01-16T18:19:50;4.40;99.90
23532;DHT22;11943;52.270;20.978;2023-01-16T18:22:17;4.40;99.90
23532;DHT22;11943;52.270;20.978;2023-01-16T18:24:43;4.40;99.90
23532;DHT22;11943;52.270;20.978;2023-01-16T18:27:10;4.40;99.90
23532;DHT22;11943;52.270;20.978;2023-01-16T18:29:36;4.40;99.90
23532;DHT22;11943;52.270;20.978;2023-01-16T18:32:02;4.40;99.90
23532;DHT22;11943;52.270;20.978;2023-01-16T18:37:38;4.50;99.90
23532;DHT22;11943;52.270;20.978;2023-01-16T18:40:05;4.50;99.90
23532;DHT22;11943;52.270;20.978;2023-01-16T18:42:50;4.50;99.90
23532;DHT22;11943;52.270;20.978;2023-01-16T18:45:34;4.50;99.90
23532;DHT22;11943;52.270;20.978;2023-01-16T18:48:18;4.50;99.90
23532;DHT22;11943;52.270;20.978;2023-01-16T18:51:03;4.50;99.90